sensor_id;sensor_type;location;lat;lon;timestamp;P1;durP1;ratioP1;P2;durP2;ratioP2
74293;SDS011;64044;59.904;10.738;2023-07-13T00:00:40;10.57;;;3.28;;
74293;SDS011;64044;59.904;10.738;2023-07-13T00:03:07;11.70;;;3.58;;
74293;SDS011;64044;59.904;10.738;2023-07-13T00:05:32;13.45;;;3.42;;
74293;SDS011;64044;59.904;10.738;2023-07-13T00:07:58;7.57;;;2.92;;
74293;SDS011;64044;59.904;10.738;2023-07-13T00:10:24;9.25;;;3.22;;
74293;SDS011;64044;59.904;10.738;2023-07-13T00:12:50;11.60;;;3.13;;
74293;SDS011;64044;59.904;10.738;2023-07-13T00:15:21;8.98;;;3.50;;
74293;SDS011;64044;59.904;10.738;2023-07-13T00:17:52;8.05;;;3.00;;
74293;SDS011;64044;59.904;10.738;2023-07-13T00:20:19;11.38;;;3.40;;
74293;SDS011;64044;59.904;10.738;2023-07-13T00:22:50;9.50;;;3.03;;
74293;SDS011;64044;59.904;10.738;2023-07-13T00:25:20;10.52;;;3.70;;
74293;SDS011;64044;59.904;10.738;2023-07-13T00:27:49;10.13;;;3.45;;
74293;SDS011;64044;59.904;10.738;2023-07-13T00:30:15;9.48;;;3.20;;
74293;SDS011;64044;59.904;10.738;2023-07-13T00:32:42;11.93;;;3.28;;
74293;SDS011;64044;59.904;10.738;2023-07-13T00:35:08;11.38;;;3.33;;
74293;SDS011;64044;59.904;10.738;2023-07-13T00:37:34;8.55;;;3.10;;
74293;SDS011;64044;59.904;10.738;2023-07-13T00:40:01;7.65;;;2.88;;
74293;SDS011;64044;59.904;10.738;2023-07-13T00:42:30;13.55;;;4.03;;
74293;SDS011;64044;59.904;10.738;2023-07-13T00:47:48;8.00;;;3.05;;
74293;SDS011;64044;59.904;10.738;2023-07-13T00:50:15;10.98;;;3.65;;
74293;SDS011;64044;59.904;10.738;2023-07-13T00:52:43;10.90;;;2.85;;
74293;SDS011;64044;59.904;10.738;2023-07-13T00:55:11;11.13;;;3.03;;
74293;SDS011;64044;59.904;10.738;2023-07-13T00:57:38;10.20;;;3.13;;
74293;SDS011;64044;59.904;10.738;2023-07-13T01:00:05;11.07;;;3.70;;
74293;SDS011;64044;59.904;10.738;2023-07-13T01:02:35;11.35;;;3.72;;
74293;SDS011;64044;59.904;10.738;2023-07-13T01:05:24;9.93;;;2.92;;
74293;SDS011;64044;59.904;10.738;2023-07-13T01:07:49;13.45;;;4.15;;
74293;SDS011;64044;59.904;10.738;2023-07-13T01:10:17;7.85;;;2.88;;
74293;SDS011;64044;59.904;10.738;2023-07-13T01:12:45;14.15;;;3.65;;
74293;SDS011;64044;59.904;10.738;2023-07-13T01:18:11;9.63;;;2.90;;
74293;SDS011;64044;59.904;10.738;2023-07-13T01:20:40;8.57;;;2.60;;
74293;SDS011;64044;59.904;10.738;2023-07-13T01:23:08;10.88;;;3.08;;
74293;SDS011;64044;59.904;10.738;2023-07-13T01:25:35;8.73;;;2.70;;
74293;SDS011;64044;59.904;10.738;2023-07-13T01:28:02;12.07;;;3.00;;
74293;SDS011;64044;59.904;10.738;2023-07-13T01:30:29;12.20;;;3.63;;
74293;SDS011;64044;59.904;10.738;2023-07-13T01:32:57;9.30;;;3.10;;
74293;SDS011;64044;59.904;10.738;2023-07-13T01:35:23;12.15;;;4.05;;
74293;SDS011;64044;59.904;10.738;2023-07-13T01:37:50;11.40;;;3.33;;
74293;SDS011;64044;59.904;10.738;2023-07-13T01:40:16;10.60;;;3.25;;
74293;SDS011;64044;59.904;10.738;2023-07-13T01:42:42;10.50;;;2.95;;
74293;SDS011;64044;59.904;10.738;2023-07-13T01:45:08;8.30;;;3.00;;
74293;SDS011;64044;59.904;10.738;2023-07-13T01:47:34;7.70;;;3.20;;
74293;SDS011;64044;59.904;10.738;2023-07-13T01:50:00;10.70;;;3.10;;
74293;SDS011;64044;59.904;10.738;2023-07-13T01:52:25;9.30;;;2.95;;
74293;SDS011;64044;59.904;10.738;2023-07-13T01:54:51;8.00;;;3.40;;
74293;SDS011;64044;59.904;10.738;2023-07-13T01:57:17;10.30;;;3.88;;
74293;SDS011;64044;59.904;10.738;2023-07-13T01:59:43;8.05;;;3.38;;
74293;SDS011;64044;59.904;10.738;2023-07-13T02:02:08;8.82;;;3.13;;
74293;SDS011;64044;59.904;10.738;2023-07-13T02:04:34;11.27;;;3.53;;
74293;SDS011;64044;59.904;10.738;2023-07-13T02:07:00;12.52;;;3.55;;
74293;SDS011;64044;59.904;10.738;2023-07-13T02:09:26;8.75;;;3.28;;
74293;SDS011;64044;59.904;10.738;2023-07-13T02:11:52;8.95;;;3.65;;
74293;SDS011;64044;59.904;10.738;2023-07-13T02:14:17;12.60;;;4.20;;
74293;SDS011;64044;59.904;10.738;2023-07-13T02:16:43;10.10;;;3.35;;
74293;SDS011;64044;59.904;10.738;2023-07-13T02:19:09;10.60;;;3.65;;
74293;SDS011;64044;59.904;10.738;2023-07-13T02:21:35;11.88;;;3.05;;
74293;SDS011;64044;59.904;10.738;2023-07-13T02:24:00;7.90;;;3.05;;
74293;SDS011;64044;59.904;10.738;2023-07-13T02:26:27;9.40;;;3.75;;
74293;SDS011;64044;59.904;10.738;2023-07-13T02:28:53;7.85;;;3.42;;
74293;SDS011;64044;59.904;10.738;2023-07-13T02:31:19;13.70;;;3.58;;
74293;SDS011;64044;59.904;10.738;2023-07-13T02:33:44;12.13;;;3.75;;
74293;SDS011;64044;59.904;10.738;2023-07-13T02:36:11;11.75;;;3.78;;
74293;SDS011;64044;59.904;10.738;2023-07-13T02:38:39;9.73;;;3.45;;
74293;SDS011;64044;59.904;10.738;2023-07-13T02:41:05;8.38;;;3.53;;
74293;SDS011;64044;59.904;10.738;2023-07-13T02:43:32;6.32;;;3.45;;
74293;SDS011;64044;59.904;10.738;2023-07-13T02:45:58;7.47;;;3.35;;
74293;SDS011;64044;59.904;10.738;2023-07-13T02:48:29;11.45;;;3.72;;
74293;SDS011;64044;59.904;10.738;2023-07-13T02:50:55;11.57;;;3.50;;
74293;SDS011;64044;59.904;10.738;2023-07-13T02:53:21;8.85;;;3.63;;
74293;SDS011;64044;59.904;10.738;2023-07-13T02:55:46;4.85;;;3.08;;
74293;SDS011;64044;59.904;10.738;2023-07-13T02:58:12;7.82;;;3.50;;
74293;SDS011;64044;59.904;10.738;2023-07-13T03:00:45;9.32;;;3.63;;
74293;SDS011;64044;59.904;10.738;2023-07-13T03:03:12;10.07;;;3.67;;
74293;SDS011;64044;59.904;10.738;2023-07-13T03:05:39;10.32;;;3.85;;
74293;SDS011;64044;59.904;10.738;2023-07-13T03:08:07;7.85;;;3.72;;
74293;SDS011;64044;59.904;10.738;2023-07-13T03:10:34;9.13;;;4.30;;
74293;SDS011;64044;59.904;10.738;2023-07-13T03:13:00;10.20;;;3.42;;
74293;SDS011;64044;59.904;10.738;2023-07-13T03:15:26;6.90;;;3.47;;
74293;SDS011;64044;59.904;10.738;2023-07-13T03:17:52;6.65;;;3.35;;
74293;SDS011;64044;59.904;10.738;2023-07-13T03:20:18;10.27;;;3.15;;
74293;SDS011;64044;59.904;10.738;2023-07-13T03:22:44;8.82;;;3.13;;
74293;SDS011;64044;59.904;10.738;2023-07-13T03:25:10;7.18;;;3.25;;
74293;SDS011;64044;59.904;10.738;2023-07-13T03:27:36;6.38;;;3.60;;
74293;SDS011;64044;59.904;10.738;2023-07-13T03:30:03;6.93;;;3.03;;
74293;SDS011;64044;59.904;10.738;2023-07-13T03:32:32;9.23;;;3.40;;
74293;SDS011;64044;59.904;10.738;2023-07-13T03:34:58;8.43;;;3.60;;
74293;SDS011;64044;59.904;10.738;2023-07-13T03:37:24;9.98;;;3.42;;
74293;SDS011;64044;59.904;10.738;2023-07-13T03:39:50;5.38;;;2.72;;
74293;SDS011;64044;59.904;10.738;2023-07-13T03:42:16;8.35;;;3.13;;
74293;SDS011;64044;59.904;10.738;2023-07-13T03:44:41;9.05;;;3.45;;
74293;SDS011;64044;59.904;10.738;2023-07-13T03:47:11;4.95;;;3.50;;
74293;SDS011;64044;59.904;10.738;2023-07-13T03:49:37;8.10;;;3.85;;
74293;SDS011;64044;59.904;10.738;2023-07-13T03:52:03;8.80;;;3.80;;
74293;SDS011;64044;59.904;10.738;2023-07-13T03:54:29;5.88;;;3.38;;
74293;SDS011;64044;59.904;10.738;2023-07-13T03:56:55;8.93;;;3.65;;
74293;SDS011;64044;59.904;10.738;2023-07-13T03:59:21;6.13;;;3.30;;
74293;SDS011;64044;59.904;10.738;2023-07-13T04:01:46;8.20;;;3.63;;
74293;SDS011;64044;59.904;10.738;2023-07-13T04:04:12;10.52;;;3.70;;
74293;SDS011;64044;59.904;10.738;2023-07-13T04:06:38;6.07;;;3.70;;
74293;SDS011;64044;59.904;10.738;2023-07-13T04:09:04;5.05;;;3.35;;
74293;SDS011;64044;59.904;10.738;2023-07-13T04:11:34;8.35;;;4.15;;
74293;SDS011;64044;59.904;10.738;2023-07-13T04:14:01;10.20;;;3.92;;
74293;SDS011;64044;59.904;10.738;2023-07-13T04:16:27;5.60;;;3.42;;
74293;SDS011;64044;59.904;10.738;2023-07-13T04:18:54;6.63;;;3.17;;
74293;SDS011;64044;59.904;10.738;2023-07-13T04:21:24;10.68;;;3.33;;
74293;SDS011;64044;59.904;10.738;2023-07-13T04:23:54;6.90;;;3.33;;
74293;SDS011;64044;59.904;10.738;2023-07-13T04:26:20;8.13;;;3.33;;
74293;SDS011;64044;59.904;10.738;2023-07-13T04:28:47;12.82;;;4.20;;
74293;SDS011;64044;59.904;10.738;2023-07-13T04:31:14;7.07;;;3.55;;
74293;SDS011;64044;59.904;10.738;2023-07-13T04:33:40;8.65;;;3.60;;
74293;SDS011;64044;59.904;10.738;2023-07-13T04:36:06;8.93;;;3.67;;
74293;SDS011;64044;59.904;10.738;2023-07-13T04:38:34;6.15;;;3.10;;
74293;SDS011;64044;59.904;10.738;2023-07-13T04:41:02;6.22;;;3.58;;
74293;SDS011;64044;59.904;10.738;2023-07-13T04:43:31;7.50;;;3.20;;
74293;SDS011;64044;59.904;10.738;2023-07-13T04:45:57;9.57;;;3.40;;
74293;SDS011;64044;59.904;10.738;2023-07-13T04:48:32;3.83;;;3.25;;
74293;SDS011;64044;59.904;10.738;2023-07-13T04:50:59;5.45;;;3.00;;
74293;SDS011;64044;59.904;10.738;2023-07-13T04:53:25;4.70;;;3.20;;
74293;SDS011;64044;59.904;10.738;2023-07-13T04:55:51;7.10;;;3.63;;
74293;SDS011;64044;59.904;10.738;2023-07-13T04:58:18;4.18;;;2.90;;
74293;SDS011;64044;59.904;10.738;2023-07-13T05:00:44;6.63;;;3.03;;
74293;SDS011;64044;59.904;10.738;2023-07-13T05:03:09;5.82;;;3.40;;
74293;SDS011;64044;59.904;10.738;2023-07-13T05:05:35;7.18;;;3.05;;
74293;SDS011;64044;59.904;10.738;2023-07-13T05:08:01;5.30;;;2.97;;
74293;SDS011;64044;59.904;10.738;2023-07-13T05:10:27;5.63;;;3.08;;
74293;SDS011;64044;59.904;10.738;2023-07-13T05:12:53;6.63;;;3.50;;
74293;SDS011;64044;59.904;10.738;2023-07-13T05:15:20;6.57;;;3.08;;
74293;SDS011;64044;59.904;10.738;2023-07-13T05:17:47;5.47;;;2.72;;
74293;SDS011;64044;59.904;10.738;2023-07-13T05:20:14;6.20;;;3.30;;
74293;SDS011;64044;59.904;10.738;2023-07-13T05:22:41;5.20;;;2.85;;
74293;SDS011;64044;59.904;10.738;2023-07-13T05:25:07;5.10;;;2.72;;
74293;SDS011;64044;59.904;10.738;2023-07-13T05:27:34;2.50;;;2.00;;
74293;SDS011;64044;59.904;10.738;2023-07-13T05:30:01;4.95;;;2.72;;
74293;SDS011;64044;59.904;10.738;2023-07-13T05:32:28;5.13;;;2.33;;
74293;SDS011;64044;59.904;10.738;2023-07-13T05:34:54;6.57;;;3.15;;
74293;SDS011;64044;59.904;10.738;2023-07-13T05:37:19;4.88;;;2.45;;
74293;SDS011;64044;59.904;10.738;2023-07-13T05:39:45;3.95;;;2.13;;
74293;SDS011;64044;59.904;10.738;2023-07-13T05:42:11;3.45;;;2.22;;
74293;SDS011;64044;59.904;10.738;2023-07-13T05:44:37;5.20;;;2.45;;
74293;SDS011;64044;59.904;10.738;2023-07-13T05:47:02;5.18;;;1.90;;
74293;SDS011;64044;59.904;10.738;2023-07-13T05:49:29;4.00;;;2.40;;
74293;SDS011;64044;59.904;10.738;2023-07-13T05:51:55;6.05;;;2.28;;
74293;SDS011;64044;59.904;10.738;2023-07-13T05:54:21;5.05;;;2.05;;
74293;SDS011;64044;59.904;10.738;2023-07-13T05:56:47;5.03;;;2.30;;
74293;SDS011;64044;59.904;10.738;2023-07-13T06:04:30;4.05;;;2.22;;
74293;SDS011;64044;59.904;10.738;2023-07-13T06:06:56;3.47;;;1.90;;
74293;SDS011;64044;59.904;10.738;2023-07-13T06:09:22;3.80;;;1.95;;
74293;SDS011;64044;59.904;10.738;2023-07-13T06:11:47;2.90;;;1.92;;
74293;SDS011;64044;59.904;10.738;2023-07-13T06:14:13;4.35;;;2.28;;
74293;SDS011;64044;59.904;10.738;2023-07-13T06:16:39;9.05;;;2.00;;
74293;SDS011;64044;59.904;10.738;2023-07-13T06:19:06;3.03;;;1.90;;
74293;SDS011;64044;59.904;10.738;2023-07-13T06:21:32;4.22;;;1.67;;
74293;SDS011;64044;59.904;10.738;2023-07-13T06:23:57;3.53;;;2.13;;
74293;SDS011;64044;59.904;10.738;2023-07-13T06:26:23;6.53;;;1.83;;
74293;SDS011;64044;59.904;10.738;2023-07-13T06:28:49;6.18;;;1.73;;
74293;SDS011;64044;59.904;10.738;2023-07-13T06:31:15;3.60;;;1.52;;
74293;SDS011;64044;59.904;10.738;2023-07-13T06:33:41;6.03;;;1.60;;
74293;SDS011;64044;59.904;10.738;2023-07-13T06:36:07;4.55;;;2.03;;
74293;SDS011;64044;59.904;10.738;2023-07-13T06:38:34;1.88;;;1.27;;
74293;SDS011;64044;59.904;10.738;2023-07-13T06:41:03;4.15;;;1.73;;
74293;SDS011;64044;59.904;10.738;2023-07-13T06:43:31;3.67;;;1.60;;
74293;SDS011;64044;59.904;10.738;2023-07-13T06:45:57;4.30;;;1.75;;
74293;SDS011;64044;59.904;10.738;2023-07-13T06:48:23;2.95;;;1.60;;
74293;SDS011;64044;59.904;10.738;2023-07-13T06:50:49;2.30;;;1.35;;
74293;SDS011;64044;59.904;10.738;2023-07-13T06:53:17;6.93;;;1.90;;
74293;SDS011;64044;59.904;10.738;2023-07-13T06:55:43;1.98;;;1.38;;
74293;SDS011;64044;59.904;10.738;2023-07-13T06:58:10;4.70;;;1.35;;
74293;SDS011;64044;59.904;10.738;2023-07-13T07:00:36;3.22;;;1.08;;
74293;SDS011;64044;59.904;10.738;2023-07-13T07:03:02;3.25;;;1.70;;
74293;SDS011;64044;59.904;10.738;2023-07-13T07:05:28;3.03;;;1.45;;
74293;SDS011;64044;59.904;10.738;2023-07-13T07:07:54;1.70;;;1.08;;
74293;SDS011;64044;59.904;10.738;2023-07-13T07:10:20;4.63;;;1.35;;
74293;SDS011;64044;59.904;10.738;2023-07-13T07:12:47;1.95;;;1.20;;
74293;SDS011;64044;59.904;10.738;2023-07-13T07:15:13;1.40;;;1.20;;
74293;SDS011;64044;59.904;10.738;2023-07-13T07:17:39;1.92;;;1.10;;
74293;SDS011;64044;59.904;10.738;2023-07-13T07:20:05;2.72;;;1.50;;
74293;SDS011;64044;59.904;10.738;2023-07-13T07:22:31;5.95;;;1.30;;
74293;SDS011;64044;59.904;10.738;2023-07-13T07:24:57;5.10;;;1.25;;
74293;SDS011;64044;59.904;10.738;2023-07-13T07:27:24;1.35;;;0.90;;
74293;SDS011;64044;59.904;10.738;2023-07-13T07:29:50;3.15;;;1.33;;
74293;SDS011;64044;59.904;10.738;2023-07-13T07:32:16;3.85;;;1.10;;
74293;SDS011;64044;59.904;10.738;2023-07-13T07:34:41;3.13;;;1.08;;
74293;SDS011;64044;59.904;10.738;2023-07-13T07:37:09;5.13;;;1.40;;
74293;SDS011;64044;59.904;10.738;2023-07-13T07:39:37;3.97;;;1.20;;
74293;SDS011;64044;59.904;10.738;2023-07-13T07:42:03;2.40;;;1.27;;
74293;SDS011;64044;59.904;10.738;2023-07-13T07:44:30;2.58;;;1.17;;
74293;SDS011;64044;59.904;10.738;2023-07-13T07:46:57;1.77;;;0.98;;
74293;SDS011;64044;59.904;10.738;2023-07-13T07:49:23;3.63;;;1.20;;
74293;SDS011;64044;59.904;10.738;2023-07-13T07:51:49;1.98;;;1.23;;
74293;SDS011;64044;59.904;10.738;2023-07-13T07:54:16;1.83;;;1.02;;
74293;SDS011;64044;59.904;10.738;2023-07-13T07:56:42;1.90;;;1.02;;
74293;SDS011;64044;59.904;10.738;2023-07-13T07:59:08;1.75;;;1.00;;
74293;SDS011;64044;59.904;10.738;2023-07-13T08:01:33;2.10;;;1.05;;
74293;SDS011;64044;59.904;10.738;2023-07-13T08:04:01;1.85;;;1.00;;
74293;SDS011;64044;59.904;10.738;2023-07-13T08:06:27;3.05;;;1.38;;
74293;SDS011;64044;59.904;10.738;2023-07-13T08:08:53;2.67;;;1.33;;
74293;SDS011;64044;59.904;10.738;2023-07-13T08:11:20;1.23;;;0.80;;
74293;SDS011;64044;59.904;10.738;2023-07-13T08:13:46;2.53;;;0.90;;
74293;SDS011;64044;59.904;10.738;2023-07-13T08:16:12;0.93;;;0.90;;
74293;SDS011;64044;59.904;10.738;2023-07-13T08:18:37;2.75;;;1.42;;
74293;SDS011;64044;59.904;10.738;2023-07-13T08:21:04;1.38;;;0.88;;
74293;SDS011;64044;59.904;10.738;2023-07-13T08:23:31;0.93;;;0.77;;
74293;SDS011;64044;59.904;10.738;2023-07-13T08:25:57;2.38;;;0.90;;
74293;SDS011;64044;59.904;10.738;2023-07-13T08:28:23;1.63;;;1.10;;
74293;SDS011;64044;59.904;10.738;2023-07-13T08:30:49;1.85;;;0.90;;
74293;SDS011;64044;59.904;10.738;2023-07-13T08:33:19;1.88;;;1.10;;
74293;SDS011;64044;59.904;10.738;2023-07-13T08:35:46;2.20;;;0.90;;
74293;SDS011;64044;59.904;10.738;2023-07-13T08:38:12;1.05;;;0.70;;
74293;SDS011;64044;59.904;10.738;2023-07-13T08:40:39;1.50;;;0.90;;
74293;SDS011;64044;59.904;10.738;2023-07-13T08:43:06;1.40;;;0.93;;
74293;SDS011;64044;59.904;10.738;2023-07-13T08:45:57;2.78;;;1.10;;
74293;SDS011;64044;59.904;10.738;2023-07-13T08:48:40;1.92;;;0.80;;
74293;SDS011;64044;59.904;10.738;2023-07-13T08:54:15;2.63;;;1.23;;
74293;SDS011;64044;59.904;10.738;2023-07-13T08:56:46;3.28;;;0.77;;
74293;SDS011;64044;59.904;10.738;2023-07-13T09:04:19;1.80;;;0.80;;
74293;SDS011;64044;59.904;10.738;2023-07-13T09:07:04;3.28;;;0.80;;
74293;SDS011;64044;59.904;10.738;2023-07-13T09:15:29;2.28;;;1.08;;
74293;SDS011;64044;59.904;10.738;2023-07-13T09:18:05;8.85;;;1.00;;
74293;SDS011;64044;59.904;10.738;2023-07-13T09:20:34;1.85;;;0.90;;
74293;SDS011;64044;59.904;10.738;2023-07-13T09:23:05;0.60;;;0.60;;
74293;SDS011;64044;59.904;10.738;2023-07-13T09:25:36;1.50;;;0.70;;
74293;SDS011;64044;59.904;10.738;2023-07-13T09:30:46;5.68;;;0.90;;
74293;SDS011;64044;59.904;10.738;2023-07-13T09:33:16;2.00;;;0.88;;
74293;SDS011;64044;59.904;10.738;2023-07-13T09:35:42;2.67;;;0.80;;
74293;SDS011;64044;59.904;10.738;2023-07-13T09:38:12;3.08;;;0.85;;
74293;SDS011;64044;59.904;10.738;2023-07-13T09:43:34;1.55;;;1.02;;
74293;SDS011;64044;59.904;10.738;2023-07-13T09:46:00;2.15;;;0.75;;
74293;SDS011;64044;59.904;10.738;2023-07-13T09:48:30;0.93;;;0.68;;
74293;SDS011;64044;59.904;10.738;2023-07-13T09:51:06;1.83;;;0.80;;
74293;SDS011;64044;59.904;10.738;2023-07-13T09:53:39;2.97;;;0.70;;
74293;SDS011;64044;59.904;10.738;2023-07-13T09:56:29;1.58;;;0.60;;
74293;SDS011;64044;59.904;10.738;2023-07-13T09:58:55;2.00;;;0.75;;
74293;SDS011;64044;59.904;10.738;2023-07-13T10:01:40;1.65;;;0.65;;
74293;SDS011;64044;59.904;10.738;2023-07-13T10:04:10;2.13;;;1.20;;
74293;SDS011;64044;59.904;10.738;2023-07-13T10:06:38;2.58;;;0.70;;
74293;SDS011;64044;59.904;10.738;2023-07-13T10:09:08;1.17;;;0.50;;
74293;SDS011;64044;59.904;10.738;2023-07-13T10:11:35;1.13;;;0.77;;
74293;SDS011;64044;59.904;10.738;2023-07-13T10:14:13;2.60;;;1.02;;
74293;SDS011;64044;59.904;10.738;2023-07-13T10:16:41;2.63;;;0.90;;
74293;SDS011;64044;59.904;10.738;2023-07-13T10:21:55;2.53;;;0.60;;
74293;SDS011;64044;59.904;10.738;2023-07-13T10:24:26;2.45;;;1.02;;
74293;SDS011;64044;59.904;10.738;2023-07-13T10:29:25;1.38;;;0.70;;
74293;SDS011;64044;59.904;10.738;2023-07-13T10:31:54;2.65;;;0.63;;
74293;SDS011;64044;59.904;10.738;2023-07-13T10:34:22;1.85;;;0.70;;
74293;SDS011;64044;59.904;10.738;2023-07-13T10:36:48;1.33;;;0.50;;
74293;SDS011;64044;59.904;10.738;2023-07-13T10:39:19;2.13;;;0.90;;
74293;SDS011;64044;59.904;10.738;2023-07-13T10:41:52;3.70;;;0.95;;
74293;SDS011;64044;59.904;10.738;2023-07-13T10:44:27;0.50;;;0.50;;
74293;SDS011;64044;59.904;10.738;2023-07-13T10:47:16;2.00;;;0.75;;
74293;SDS011;64044;59.904;10.738;2023-07-13T10:49:43;1.35;;;0.75;;
74293;SDS011;64044;59.904;10.738;2023-07-13T10:58:01;0.50;;;0.50;;
74293;SDS011;64044;59.904;10.738;2023-07-13T11:00:42;1.50;;;0.75;;
74293;SDS011;64044;59.904;10.738;2023-07-13T11:03:13;3.35;;;0.90;;
74293;SDS011;64044;59.904;10.738;2023-07-13T11:05:41;2.80;;;0.80;;
74293;SDS011;64044;59.904;10.738;2023-07-13T11:10:53;1.13;;;0.57;;
74293;SDS011;64044;59.904;10.738;2023-07-13T11:18:48;1.13;;;0.52;;
74293;SDS011;64044;59.904;10.738;2023-07-13T11:21:19;3.10;;;0.80;;
74293;SDS011;64044;59.904;10.738;2023-07-13T11:23:54;1.30;;;0.50;;
74293;SDS011;64044;59.904;10.738;2023-07-13T11:31:40;2.13;;;0.85;;
74293;SDS011;64044;59.904;10.738;2023-07-13T11:34:12;1.63;;;0.75;;
74293;SDS011;64044;59.904;10.738;2023-07-13T11:36:42;1.02;;;0.63;;
74293;SDS011;64044;59.904;10.738;2023-07-13T11:41:51;1.92;;;0.88;;
74293;SDS011;64044;59.904;10.738;2023-07-13T11:44:21;1.58;;;0.70;;
74293;SDS011;64044;59.904;10.738;2023-07-13T11:46:52;2.30;;;0.75;;
74293;SDS011;64044;59.904;10.738;2023-07-13T11:49:21;3.00;;;0.90;;
74293;SDS011;64044;59.904;10.738;2023-07-13T11:51:52;3.20;;;0.90;;
74293;SDS011;64044;59.904;10.738;2023-07-13T11:56:59;4.07;;;1.02;;
74293;SDS011;64044;59.904;10.738;2023-07-13T11:59:31;1.73;;;0.77;;
74293;SDS011;64044;59.904;10.738;2023-07-13T12:01:58;2.53;;;0.80;;
74293;SDS011;64044;59.904;10.738;2023-07-13T12:04:28;1.45;;;0.60;;
74293;SDS011;64044;59.904;10.738;2023-07-13T12:07:07;1.00;;;0.70;;
74293;SDS011;64044;59.904;10.738;2023-07-13T12:09:42;2.30;;;1.27;;
74293;SDS011;64044;59.904;10.738;2023-07-13T12:12:16;3.28;;;0.77;;
74293;SDS011;64044;59.904;10.738;2023-07-13T12:14:43;3.30;;;0.90;;
74293;SDS011;64044;59.904;10.738;2023-07-13T12:17:16;3.28;;;1.00;;
74293;SDS011;64044;59.904;10.738;2023-07-13T12:19:47;1.95;;;0.77;;
74293;SDS011;64044;59.904;10.738;2023-07-13T12:22:14;5.50;;;0.90;;
74293;SDS011;64044;59.904;10.738;2023-07-13T12:24:41;3.15;;;0.93;;
74293;SDS011;64044;59.904;10.738;2023-07-13T12:30:01;2.78;;;0.77;;
74293;SDS011;64044;59.904;10.738;2023-07-13T12:32:30;2.20;;;0.98;;
74293;SDS011;64044;59.904;10.738;2023-07-13T12:35:18;2.55;;;0.90;;
74293;SDS011;64044;59.904;10.738;2023-07-13T12:37:45;2.13;;;0.80;;
74293;SDS011;64044;59.904;10.738;2023-07-13T12:40:18;1.98;;;0.90;;
74293;SDS011;64044;59.904;10.738;2023-07-13T12:42:48;2.78;;;0.90;;
74293;SDS011;64044;59.904;10.738;2023-07-13T12:45:20;2.22;;;0.90;;
74293;SDS011;64044;59.904;10.738;2023-07-13T12:47:49;1.42;;;0.90;;
74293;SDS011;64044;59.904;10.738;2023-07-13T12:50:19;2.47;;;0.90;;
74293;SDS011;64044;59.904;10.738;2023-07-13T12:52:59;1.77;;;1.10;;
74293;SDS011;64044;59.904;10.738;2023-07-13T12:57:58;6.53;;;1.30;;
74293;SDS011;64044;59.904;10.738;2023-07-13T13:08:48;2.47;;;1.20;;
74293;SDS011;64044;59.904;10.738;2023-07-13T13:11:15;1.52;;;1.05;;
74293;SDS011;64044;59.904;10.738;2023-07-13T13:13:41;2.38;;;1.02;;
74293;SDS011;64044;59.904;10.738;2023-07-13T13:16:15;2.08;;;0.95;;
74293;SDS011;64044;59.904;10.738;2023-07-13T13:18:53;2.72;;;0.82;;
74293;SDS011;64044;59.904;10.738;2023-07-13T13:21:22;3.33;;;1.00;;
74293;SDS011;64044;59.904;10.738;2023-07-13T13:23:48;5.13;;;1.20;;
74293;SDS011;64044;59.904;10.738;2023-07-13T13:26:16;4.80;;;1.38;;
74293;SDS011;64044;59.904;10.738;2023-07-13T13:28:48;2.72;;;1.00;;
74293;SDS011;64044;59.904;10.738;2023-07-13T13:31:15;4.50;;;1.73;;
74293;SDS011;64044;59.904;10.738;2023-07-13T13:33:41;4.32;;;1.02;;
74293;SDS011;64044;59.904;10.738;2023-07-13T13:36:20;3.13;;;1.10;;
74293;SDS011;64044;59.904;10.738;2023-07-13T13:38:48;4.10;;;1.25;;
74293;SDS011;64044;59.904;10.738;2023-07-13T13:41:15;8.23;;;1.60;;
74293;SDS011;64044;59.904;10.738;2023-07-13T13:43:41;14.65;;;2.67;;
74293;SDS011;64044;59.904;10.738;2023-07-13T13:46:19;13.77;;;1.80;;
74293;SDS011;64044;59.904;10.738;2023-07-13T13:48:47;18.67;;;3.13;;
74293;SDS011;64044;59.904;10.738;2023-07-13T13:53:44;18.88;;;3.38;;
74293;SDS011;64044;59.904;10.738;2023-07-13T13:56:11;5.85;;;1.38;;
74293;SDS011;64044;59.904;10.738;2023-07-13T13:58:38;6.50;;;1.40;;
74293;SDS011;64044;59.904;10.738;2023-07-13T14:01:04;2.30;;;0.90;;
74293;SDS011;64044;59.904;10.738;2023-07-13T14:03:37;1.35;;;0.60;;
74293;SDS011;64044;59.904;10.738;2023-07-13T14:06:03;3.63;;;1.15;;
74293;SDS011;64044;59.904;10.738;2023-07-13T14:08:29;3.95;;;0.85;;
74293;SDS011;64044;59.904;10.738;2023-07-13T14:10:55;3.58;;;1.15;;
74293;SDS011;64044;59.904;10.738;2023-07-13T14:14:05;6.57;;;1.35;;
74293;SDS011;64044;59.904;10.738;2023-07-13T14:16:19;2.17;;;0.88;;
74293;SDS011;64044;59.904;10.738;2023-07-13T14:18:47;3.42;;;1.10;;
74293;SDS011;64044;59.904;10.738;2023-07-13T14:21:19;3.00;;;1.08;;
74293;SDS011;64044;59.904;10.738;2023-07-13T14:23:47;3.97;;;1.20;;
74293;SDS011;64044;59.904;10.738;2023-07-13T14:26:17;3.72;;;1.33;;
74293;SDS011;64044;59.904;10.738;2023-07-13T14:28:46;4.10;;;1.52;;
74293;SDS011;64044;59.904;10.738;2023-07-13T14:31:14;5.03;;;1.85;;
74293;SDS011;64044;59.904;10.738;2023-07-13T14:33:41;6.50;;;1.63;;
74293;SDS011;64044;59.904;10.738;2023-07-13T14:39:00;4.57;;;1.40;;
74293;SDS011;64044;59.904;10.738;2023-07-13T14:41:35;5.85;;;1.70;;
74293;SDS011;64044;59.904;10.738;2023-07-13T14:44:00;5.95;;;1.60;;
74293;SDS011;64044;59.904;10.738;2023-07-13T14:46:30;6.65;;;1.83;;
74293;SDS011;64044;59.904;10.738;2023-07-13T14:49:05;5.03;;;1.45;;
74293;SDS011;64044;59.904;10.738;2023-07-13T14:51:49;5.60;;;1.63;;
74293;SDS011;64044;59.904;10.738;2023-07-13T14:54:15;5.75;;;1.77;;
74293;SDS011;64044;59.904;10.738;2023-07-13T14:56:41;4.38;;;1.15;;
74293;SDS011;64044;59.904;10.738;2023-07-13T14:59:07;3.20;;;1.40;;
74293;SDS011;64044;59.904;10.738;2023-07-13T15:01:34;4.60;;;1.70;;
74293;SDS011;64044;59.904;10.738;2023-07-13T15:04:01;3.17;;;1.55;;
74293;SDS011;64044;59.904;10.738;2023-07-13T15:06:27;4.82;;;1.80;;
74293;SDS011;64044;59.904;10.738;2023-07-13T15:08:54;5.72;;;1.88;;
74293;SDS011;64044;59.904;10.738;2023-07-13T15:11:20;4.68;;;1.60;;
74293;SDS011;64044;59.904;10.738;2023-07-13T15:13:47;11.15;;;2.10;;
74293;SDS011;64044;59.904;10.738;2023-07-13T15:16:14;3.70;;;1.60;;
74293;SDS011;64044;59.904;10.738;2023-07-13T15:18:43;5.78;;;1.08;;
74293;SDS011;64044;59.904;10.738;2023-07-13T15:21:11;4.05;;;1.20;;
74293;SDS011;64044;59.904;10.738;2023-07-13T15:23:42;3.03;;;0.82;;
74293;SDS011;64044;59.904;10.738;2023-07-13T15:26:11;5.97;;;1.25;;
74293;SDS011;64044;59.904;10.738;2023-07-13T15:28:39;3.03;;;0.93;;
74293;SDS011;64044;59.904;10.738;2023-07-13T15:31:11;1.45;;;0.80;;
74293;SDS011;64044;59.904;10.738;2023-07-13T15:33:44;1.77;;;0.70;;
74293;SDS011;64044;59.904;10.738;2023-07-13T15:36:13;4.57;;;1.17;;
74293;SDS011;64044;59.904;10.738;2023-07-13T15:38:39;5.70;;;1.10;;
74293;SDS011;64044;59.904;10.738;2023-07-13T15:41:25;3.03;;;0.75;;
74293;SDS011;64044;59.904;10.738;2023-07-13T15:43:54;2.85;;;0.80;;
74293;SDS011;64044;59.904;10.738;2023-07-13T15:46:23;3.37;;;0.90;;
74293;SDS011;64044;59.904;10.738;2023-07-13T15:48:50;2.30;;;0.85;;
74293;SDS011;64044;59.904;10.738;2023-07-13T15:51:23;3.70;;;0.82;;
74293;SDS011;64044;59.904;10.738;2023-07-13T15:53:52;3.47;;;1.00;;
74293;SDS011;64044;59.904;10.738;2023-07-13T15:56:21;2.78;;;1.02;;
74293;SDS011;64044;59.904;10.738;2023-07-13T15:58:49;1.77;;;1.08;;